Maple Grove Park, Pennsylvania
Current Conditions -  °F | °C
As of 12:54 PM on Friday 24 Oct 2014 (Local Time) from KRDG Reporting Station
Light Rain Light Rain  
Wind Chill: 66°   Ceiling: Unl
Heat Index: 66°   Visibility: 10mi
Dew Point: 44°   Wind: 16mph
Humidity: 45%   Direction: 310°NW
Pressure: 29.87"   Gusts: 24mph
Location:  40.2411°N, 75.9752°W
Report Text: KRDG 241654Z 31014G21KT 10SM -RA FEW048 19/07 A2987 RMK AO2 RAB31 SLP117 P0000 T01890067
Loading
Personal Weather Stations






























Interactive Weather Map
Tropical Storm Tracking
New forecast layout! Learn more

10-Day Weather Forecast

Advertisements
Track Severe Weather on mobile